Terminal Aerodrome Forecast
Issued by NWS

Home | Current Version | Previous Version | Text Only | Print | Product List | Glossary On
Versions: 1 2 3 4 5 6 7 8 9 10 11 12 13 14 15 16 17 18 19 20 21 22 23 24 25 26 27 28 29 30 31 32 33 34 35 36 37 38 39 40
000
FTUS41 KBOX 180737 AAA
TAFACK
TAF AMD
KACK 180737Z 1808/1906 VRB04KT 2SM BR SCT002
     FM181300 VRB03KT 3SM BR SCT002
     FM181400 20004KT P6SM BKN250
     FM182000 21010KT P6SM BKN250
     FM182200 25013KT P6SM BKN250
     FM190100 29013KT P6SM SCT060
     FM190500 33015G23KT P6SM FEW250=

USA.gov is the U.S. government's official web portal to all federal, state and local government web resources and services.